Knoxville, Tennessee
Current Conditions -  °F | °C
As of 10:53 AM on Wednesday 22 Oct 2014 (Local Time) from KTYS Reporting Station
Few Clouds Few Clouds  
Wind Chill: 11°   Ceiling: Unl
Heat Index: 11°   Visibility: 10mi
Dew Point:   Wind: 12mph
Humidity: 63%   Direction: 30°NNE
Pressure: 30.21"   Gusts: NA
Location:  35.96°N, 83.92°W
Report Text: KTYS 221453Z 03010KT 10SM FEW028 11/04 A3021 RMK AO2 SLP228 T01110044 51014
Loading
Personal Weather Stations






























Interactive Weather Map
Tropical Storm Tracking
New forecast layout! Learn more

10-Day Weather Forecast

Advertisements
Track Severe Weather on mobile